Flight Track Log - Related Links

Times and Time Zones

All times are in EDT time to prevent confusion due to time zone crossing. See the EJA922 flight status page for this flight to view local times or setup timezone preferences in your user account.


Time Position Orientation Groundspeed Altitude Reporting Facility
EDT Latitude Longitude Course Direction KTS MPH feet Rate Location/Type
Wed 11:47:50 PM 37.6306 -122.4314 130° Southeast 206 237 9,100  Level Oakland Center
Wed 11:48:51 PM 37.5558 -122.4397 185° South 261 300 10,000 1,230 Climbing Oakland Center
Wed 11:49:52 PM 37.4867 -122.3478 133° Southeast 351 404 11,600 2,164 Climbing Oakland Center
Wed 11:50:53 PM 37.4164 -122.2547 134° Southeast 369 425 14,400 2,656 Climbing Oakland Center
Wed 11:51:54 PM 37.3456 -122.1611 134° Southeast 368 423 17,000 2,410 Climbing Oakland Center
Wed 11:52:55 PM 37.2583 -122.0453 133° Southeast 380 437 19,300 2,164 Climbing Oakland Center
Wed 11:53:00 PM 37.0989 -121.8732 130° Southeast  Level FlightAware Approximate
Wed 11:53:56 PM 37.1828 -121.9447 133° Southeast 394 453 21,400  Level Oakland Center
Wed 11:54:56 PM 37.1064 -121.8425 133° Southeast 402 463 23,000 1,636 Climbing Oakland Center
Wed 11:55:57 PM 37.0275 -121.7397 134° Southeast 408 470 24,700 1,623 Climbing Oakland Center
Wed 11:56:58 PM 36.9475 -121.6336 133° Southeast 418 481 26,300 1,721 Climbing Oakland Center
Wed 11:57:59 PM 36.8683 -121.5303 134° Southeast 412 474 28,200 1,672 Climbing Oakland Center
Wed 11:59:00 PM 36.7961 -121.4358 134° Southeast 411 473 29,700 1,623 Climbing Oakland Center
Thu 12:00:01 AM 36.7011 -121.3106 133° Southeast 412 474 31,500 1,574 Climbing Oakland Center
Thu 12:01:02 AM 36.6175 -121.2047 135° Southeast 425 489 32,900 738 Climbing Oakland Center
Thu 12:02:03 AM 36.5342 -121.0961 134° Southeast 432 497 33,000 49 Climbing Oakland Center
Thu 12:03:04 AM 36.4533 -120.9908 134° Southeast 422 486 33,000  Level Oakland Center
Thu 12:04:05 AM 36.3731 -120.8886 134° Southeast 413 475 33,000  Level Oakland Center
Thu 12:05:05 AM 36.2906 -120.7828 134° Southeast 424 488 33,000  Level Oakland Center
Thu 12:06:06 AM 36.2044 -120.6750 135° Southeast 437 503 33,000  Level Oakland Center
Thu 12:07:07 AM 36.1164 -120.5625 134° Southeast 450 518 33,000  Level Oakland Center
Thu 12:08:08 AM 36.0281 -120.4519 135° Southeast 451 519 33,000  Level Oakland Center
Thu 12:09:09 AM 35.9428 -120.3431 134° Southeast 440 506 33,000  Level Oakland Center
Thu 12:10:10 AM 35.8525 -120.2333 135° Southeast 429 494 33,000  Level Oakland Center
Thu 12:11:11 AM 35.7744 -120.1353 134° Southeast 424 488 33,000  Level Oakland Center
Thu 12:12:12 AM 35.6894 -120.0289 135° Southeast 429 494 33,000  Level Oakland Center
Thu 12:13:13 AM 35.5956 -119.9250 138° Southeast 432 497 33,000  Level Oakland Center
Thu 12:14:14 AM 35.4981 -119.8494 148° Southeast 430 495 33,000  Level Los Angeles Center
Thu 12:14:14 AM 35.4981 -119.8494 148° Southeast 425 489 33,000  Level Oakland Center
Thu 12:15:16 AM 35.3997 -119.7642 145° Southeast 431 496 33,000  Level Los Angeles Center
Thu 12:16:18 AM 35.2817 -119.6619 145° Southeast 432 497 33,000  Level Los Angeles Center
Thu 12:17:19 AM 35.1831 -119.5789 145° Southeast 429 494 33,000 -98 Level Los Angeles Center
Thu 12:18:20 AM 35.0842 -119.4958 145° Southeast 430 495 32,800 -1,220 Descending Los Angeles Center
Thu 12:19:22 AM 34.9861 -119.4111 145° Southeast 431 496 30,500 -2,244 Descending Los Angeles Center
Thu 12:20:23 AM 34.8858 -119.3267 145° Southeast 436 502 28,200 -2,244 Descending Los Angeles Center
Thu 12:21:25 AM 34.7894 -119.2467 146° Southeast 425 489 25,900 -2,146 Descending Los Angeles Center
Thu 12:22:26 AM 34.6975 -119.1675 145° Southeast 410 472 23,800 -2,146 Descending Los Angeles Center
Thu 12:23:28 AM 34.5972 -119.0850 146° Southeast 415 478 21,500 -2,146 Descending Los Angeles Center
Thu 12:24:29 AM 34.5069 -119.0083 145° Southeast 398 458 19,400 -2,049 Descending Los Angeles Center
Thu 12:25:31 AM 34.4153 -118.9322 146° Southeast 397 457 17,300 -1,902 Descending Los Angeles Center
Thu 12:26:32 AM 34.3239 -118.8906 159° South 360 414 15,500 -1,422 Descending Los Angeles Center
Thu 12:27:46 AM 34.2156 -118.8956 182° South 323 372 14,100 -1,368 Descending Los Angeles Center
Thu 12:28:48 AM 34.1256 -118.8692 166° South 280 322 12,400 -1,512 Descending Los Angeles Center
Thu 12:29:49 AM 34.0769 -118.8067 133° Southeast 273 314 11,000 -1,180 Descending Los Angeles Center
Thu 12:30:50 AM 34.0614 -118.7228 103° East 246 283 10,000 -488 Descending Los Angeles Center
Thu 12:31:52 AM 34.0472 -118.6494 103° East 210 242 10,000 -683 Level Los Angeles Center
Thu 12:32:53 AM 34.0350 -118.5847 103° East 200 230 8,600 -1,220 Descending Los Angeles Center
Thu 12:33:55 AM 34.0239 -118.5278 103° East 204 235 7,500 -780 Descending Los Angeles Center
Thu 12:34:56 AM 34.0111 -118.4583 102° East 203 234 7,000 -634 Descending Los Angeles Center
Thu 12:35:58 AM 34.0144 -118.3892 87° East 205 236 6,200 -829 Descending Los Angeles Center
Thu 12:36:59 AM 34.0214 -118.3025 84° East 214 246 5,300 -976 Descending Los Angeles Center
Thu 12:38:01 AM 34.0053 -118.2411 108° East 218 251 4,200 -1,220 Descending Los Angeles Center
Thu 12:39:02 AM 33.9664 -118.2714 213° Southwest 194 223 2,800 -1,268 Descending Los Angeles Center
Thu 12:40:04 AM 33.9594 -118.3286 262° West 183 211 1,600 -1,024 Descending Los Angeles Center
Thu 12:41:05 AM 33.9547 -118.3739 263° West 158 182 700 -738 Descending Los Angeles Center
Thu 12:42:06 AM 33.9506 -118.4206 264° West 144 166 100 -590 Descending Los Angeles Center
Thu 12:44:00 AM 33.9425 -118.4081 228° Southwest  Level Estimated

Login

Don't have an account? Register now (free) for customized features, flight alerts, and more!